»·PEaware :: N604S KMRY-KLAS

N604S :: KMRY-KLAS

FLIGHT INFORMATION

Flight Status: Arrived
Operator: Privately registered:
United States
More flights under this callsign
Pilot: Andy P. (22680)
Aircraft: GATES LEARJET LEARJET 35/36
(LJ35)
More flights by this aircraft type
Origin: KMRY Monterey Peninsula
United States
Destination: KLAS McCarran Intl
United States
More flights between these airports :: More routes between these airports
Route: +MRY5 SNS PXN NTELL BIH LIDAT J92 BTY SUNST4
File this flight plan on PilotEdge
Remarks:
Altitude:
(Current/Filed)
35,000ft
Speed:
(Current/Filed)
465kts
Departed: 16-Jan-20 03:04 PM
Arrived: 16-Jan-20 04:08 PM
Distance/Time
Traveled:
324nm/1:03
Distance/Time
To Go:
Arrived

Flight Plot

Page will automatically refresh every two minutes.

Flight plan parsing failed; only flown route is shown


Map Options




Map Legend


Flown Route
Filed Route
Departure Airport
Arrival Airport
Navaid (VOR, NDB)
Fix

Horizontal Profiles

Position Reports

Time Latitude Longitude Heading Altitude Ground
Speed
16-Jan-20 14:45 36.589351 -121.857867 343 208ft 0kts
16-Jan-20 14:46 36.589351 -121.857867 343 208ft 0kts
16-Jan-20 14:47 36.589351 -121.857867 343 208ft 0kts
16-Jan-20 14:48 36.589351 -121.857867 343 208ft 0kts
16-Jan-20 14:49 36.589351 -121.857867 343 208ft 0kts
16-Jan-20 14:50 36.589351 -121.857867 343 208ft 0kts
16-Jan-20 14:51 36.589351 -121.857867 343 208ft 0kts
16-Jan-20 14:52 36.589351 -121.857867 343 208ft 0kts
16-Jan-20 14:53 36.589351 -121.857867 343 208ft 0kts
16-Jan-20 14:54 36.589351 -121.857867 343 208ft 0kts
16-Jan-20 14:55 36.589351 -121.857867 343 208ft 0kts
16-Jan-20 14:56 36.589351 -121.857867 343 208ft 0kts
16-Jan-20 14:57 36.589351 -121.857867 343 208ft 0kts
16-Jan-20 14:58 36.589352 -121.857867 343 208ft 0kts
16-Jan-20 14:59 36.589355 -121.857868 343 208ft 0kts
16-Jan-20 15:00 36.589588 -121.857680 106 208ft 7kts
16-Jan-20 15:01 36.590263 -121.856741 328 208ft 0kts
16-Jan-20 15:02 36.591001 -121.856316 81 208ft 13kts
16-Jan-20 15:03 36.586472 -121.821263 47 1246ft 146kts
16-Jan-20 15:04 36.633147 -121.829083 341 3091ft 193kts
16-Jan-20 15:05 36.688742 -121.843352 340 5836ft 202kts
16-Jan-20 15:06 36.723361 -121.801693 111 8713ft 197kts
16-Jan-20 15:07 36.704490 -121.725305 128 10978ft 270kts
16-Jan-20 15:08 36.672467 -121.632155 121 14040ft 326kts
16-Jan-20 15:09 36.671375 -121.509431 94 17803ft 379kts
16-Jan-20 15:10 36.678871 -121.374027 94 21333ft 402kts
16-Jan-20 15:11 36.687801 -121.231262 94 24405ft 423kts
16-Jan-20 15:12 36.697049 -121.082324 93 26916ft 441kts
16-Jan-20 15:13 36.706550 -120.926785 92 29116ft 456kts
16-Jan-20 15:14 36.719009 -120.769214 84 31507ft 458kts
16-Jan-20 15:15 36.749918 -120.614980 79 33556ft 459kts
16-Jan-20 15:16 36.782307 -120.459940 78 34972ft 475kts
16-Jan-20 15:17 36.816736 -120.294002 78 34999ft 512kts
16-Jan-20 15:18 36.853077 -120.117669 78 35006ft 535kts
16-Jan-20 15:19 36.890663 -119.936220 76 34992ft 539kts
16-Jan-20 15:20 36.941272 -119.760836 70 34969ft 536kts
16-Jan-20 15:21 36.996153 -119.588201 70 34980ft 533kts
16-Jan-20 15:22 37.051112 -119.414926 70 34955ft 536kts
16-Jan-20 15:23 37.105899 -119.241281 71 34912ft 536kts
16-Jan-20 15:24 37.160342 -119.067693 71 34857ft 535kts
16-Jan-20 15:25 37.214449 -118.894123 71 34802ft 533kts
16-Jan-20 15:26 37.268130 -118.720856 71 34744ft 531kts
16-Jan-20 15:27 37.321244 -118.548368 71 34742ft 528kts
16-Jan-20 15:29 37.370079 -118.374983 80 34741ft 522kts
16-Jan-20 15:30 37.385914 -118.196313 91 34743ft 514kts
16-Jan-20 15:31 37.395130 -118.017430 91 34743ft 512kts
16-Jan-20 15:32 37.404002 -117.839627 91 34745ft 506kts
16-Jan-20 15:33 37.412523 -117.663168 91 34753ft 503kts
16-Jan-20 15:34 37.420733 -117.487542 91 34765ft 504kts
16-Jan-20 15:35 37.405848 -117.316600 119 34776ft 482kts
16-Jan-20 15:36 37.327589 -117.190852 153 34822ft 444kts
16-Jan-20 15:37 37.224856 -117.104846 153 34826ft 445kts
16-Jan-20 15:38 37.122670 -117.017663 154 34196ft 446kts
16-Jan-20 15:39 37.020021 -116.931136 154 32365ft 446kts
16-Jan-20 15:40 36.916255 -116.844101 153 30533ft 448kts
16-Jan-20 15:41 36.812992 -116.755596 148 28708ft 456kts
16-Jan-20 15:42 36.723494 -116.637215 138 26794ft 476kts
16-Jan-20 15:43 36.635742 -116.512470 138 24865ft 480kts
16-Jan-20 15:44 36.549627 -116.390331 138 22956ft 459kts
16-Jan-20 15:45 36.465811 -116.271967 137 21108ft 448kts
16-Jan-20 15:46 36.385427 -116.158814 137 19544ft 428kts
16-Jan-20 15:46 36.320144 -116.067239 137 18293ft 422kts
16-Jan-20 15:48 36.239433 -115.954046 139 16713ft 306kts
16-Jan-20 15:49 36.190005 -115.867099 118 15675ft 318kts
16-Jan-20 15:49 36.163287 -115.783797 118 14885ft 312kts
16-Jan-20 15:51 36.125314 -115.665939 118 13784ft 316kts
16-Jan-20 15:51 36.099369 -115.585446 119 12994ft 288kts
16-Jan-20 15:52 36.070188 -115.495552 119 12141ft 282kts
16-Jan-20 15:54 36.036746 -115.392654 117 11160ft 279kts
16-Jan-20 15:54 36.027116 -115.313751 100 10285ft 275kts
16-Jan-20 15:55 36.020007 -115.221545 98 9215ft 264kts
16-Jan-20 15:56 36.014026 -115.135431 98 8418ft 239kts
16-Jan-20 15:57 36.008629 -115.054327 97 8017ft 235kts
16-Jan-20 15:58 36.003935 -114.973836 97 8011ft 232kts
16-Jan-20 15:59 36.001424 -114.893199 77 7903ft 242kts
16-Jan-20 16:00 36.058463 -114.868605 345 6248ft 238kts
16-Jan-20 16:01 36.110931 -114.908302 304 5396ft 223kts
16-Jan-20 16:02 36.142699 -114.966205 302 5000ft 193kts
16-Jan-20 16:03 36.152139 -115.028289 270 4486ft 173kts
16-Jan-20 16:04 36.149130 -115.086443 260 4149ft 158kts
16-Jan-20 16:05 36.132105 -115.132364 227 3275ft 136kts
16-Jan-20 16:06 36.101686 -115.155281 205 2297ft 118kts
16-Jan-20 16:07 36.089442 -115.163709 293 2184ft 0kts
16-Jan-20 16:08 36.086024 -115.166655 204 2184ft 37kts
16-Jan-20 16:09 36.080942 -115.171277 121 2184ft 5kts
16-Jan-20 16:10 36.080898 -115.171109 91 2184ft 0kts

Navigation Log

Ident Type
Flight plan parsing failed, navigation log unavailable